Time;durP1;ratioP1;P1;durP2;ratioP2;P2;SDS_P1;SDS_P2;PMS_P1;PMS_P2;Temp;Humidity;BMP_temperature;BMP_pressure;BME280_temperature;BME280_humidity;BME280_pressure;Samples;Min_cycle;Max_cycle;Signal;HPM_P1;HPM_P2
2023/09/26 00:00:49;;;;;;;1.9;1.7;;;;;;;;;;;;;
2023/09/26 00:03:14;;;;;;;2.2;1.8;;;;;;;;;;;;;
2023/09/26 00:05:39;;;;;;;3.5;1.9;;;;;;;;;;;;;
2023/09/26 00:08:04;;;;;;;2.5;1.8;;;;;;;;;;;;;
2023/09/26 00:10:29;;;;;;;1.7;1.5;;;;;;;;;;;;;
2023/09/26 00:12:55;;;;;;;1.5;1.4;;;;;;;;;;;;;
2023/09/26 00:15:20;;;;;;;2.7;1.6;;;;;;;;;;;;;
2023/09/26 00:17:45;;;;;;;1.5;1.4;;;;;;;;;;;;;
2023/09/26 00:20:27;;;;;;;1.7;1.5;;;;;;;;;;;;;
2023/09/26 00:22:35;;;;;;;2.3;1.6;;;;;;;;;;;;;
2023/09/26 00:25:00;;;;;;;2;1.5;;;;;;;;;;;;;
2023/09/26 00:27:25;;;;;;;3.7;1.5;;;;;;;;;;;;;
2023/09/26 00:29:50;;;;;;;2;1.5;;;;;;;;;;;;;
2023/09/26 00:32:16;;;;;;;2.9;1.6;;;;;;;;;;;;;
2023/09/26 00:34:40;;;;;;;3.1;1.5;;;;;;;;;;;;;
2023/09/26 00:37:06;;;;;;;3;1.5;;;;;;;;;;;;;
2023/09/26 00:39:33;;;;;;;1.8;1.7;;;;;;;;;;;;;
2023/09/26 00:41:58;;;;;;;2.2;1.5;;;;;;;;;;;;;
2023/09/26 00:44:23;;;;;;;3.3;1.6;;;;;;;;;;;;;
2023/09/26 00:46:48;;;;;;;2.3;1.4;;;;;;;;;;;;;
2023/09/26 00:49:13;;;;;;;2.9;1.6;;;;;;;;;;;;;
2023/09/26 00:51:38;;;;;;;2;1.5;;;;;;;;;;;;;
2023/09/26 00:54:04;;;;;;;1.8;1.5;;;;;;;;;;;;;
2023/09/26 00:56:29;;;;;;;2;1.6;;;;;;;;;;;;;
2023/09/26 00:58:54;;;;;;;1.7;1.5;;;;;;;;;;;;;
2023/09/26 01:01:19;;;;;;;1.5;1.4;;;;;;;;;;;;;
2023/09/26 01:03:44;;;;;;;1.5;1.4;;;;;;;;;;;;;
2023/09/26 01:06:09;;;;;;;2.2;1.4;;;;;;;;;;;;;
2023/09/26 01:08:34;;;;;;;1.4;1.3;;;;;;;;;;;;;
2023/09/26 01:10:59;;;;;;;2.9;1.7;;;;;;;;;;;;;
2023/09/26 01:13:24;;;;;;;1.6;1.5;;;;;;;;;;;;;
2023/09/26 01:15:50;;;;;;;2.7;1.7;;;;;;;;;;;;;
2023/09/26 01:18:15;;;;;;;2;1.5;;;;;;;;;;;;;
2023/09/26 01:20:43;;;;;;;3.5;1.5;;;;;;;;;;;;;
2023/09/26 01:23:05;;;;;;;2.7;1.5;;;;;;;;;;;;;
2023/09/26 01:25:30;;;;;;;2.3;1.4;;;;;;;;;;;;;
2023/09/26 01:27:57;;;;;;;2.4;1.5;;;;;;;;;;;;;
2023/09/26 01:30:20;;;;;;;1.8;1.3;;;;;;;;;;;;;
2023/09/26 01:32:45;;;;;;;1.5;1.4;;;;;;;;;;;;;
2023/09/26 01:35:10;;;;;;;2.3;1.5;;;;;;;;;;;;;
2023/09/26 01:37:36;;;;;;;2.3;1.5;;;;;;;;;;;;;
2023/09/26 01:40:02;;;;;;;1.6;1.4;;;;;;;;;;;;;
2023/09/26 01:42:26;;;;;;;1.7;1.6;;;;;;;;;;;;;
2023/09/26 01:44:54;;;;;;;3.7;1.5;;;;;;;;;;;;;
2023/09/26 01:47:19;;;;;;;1.9;1.4;;;;;;;;;;;;;
2023/09/26 01:49:45;;;;;;;1.8;1.3;;;;;;;;;;;;;
2023/09/26 01:52:10;;;;;;;3.1;1.4;;;;;;;;;;;;;
2023/09/26 01:54:35;;;;;;;1.9;1.5;;;;;;;;;;;;;
2023/09/26 01:57:00;;;;;;;3.2;1.6;;;;;;;;;;;;;
2023/09/26 01:59:25;;;;;;;1.3;1.2;;;;;;;;;;;;;
2023/09/26 02:01:50;;;;;;;1.8;1.5;;;;;;;;;;;;;
2023/09/26 02:04:15;;;;;;;2.7;1.7;;;;;;;;;;;;;
2023/09/26 02:06:41;;;;;;;2.7;1.8;;;;;;;;;;;;;
2023/09/26 02:09:06;;;;;;;1.8;1.4;;;;;;;;;;;;;
2023/09/26 02:11:31;;;;;;;1.5;1.3;;;;;;;;;;;;;
2023/09/26 02:13:56;;;;;;;1.9;1.4;;;;;;;;;;;;;
2023/09/26 02:16:22;;;;;;;2.2;1.5;;;;;;;;;;;;;
2023/09/26 02:18:47;;;;;;;1.4;1.3;;;;;;;;;;;;;
2023/09/26 02:21:13;;;;;;;2.1;1.3;;;;;;;;;;;;;
2023/09/26 02:23:38;;;;;;;2.3;1.5;;;;;;;;;;;;;
2023/09/26 02:26:04;;;;;;;1.5;1.3;;;;;;;;;;;;;
2023/09/26 02:28:29;;;;;;;2.2;1.6;;;;;;;;;;;;;
2023/09/26 02:30:54;;;;;;;2.6;1.3;;;;;;;;;;;;;
2023/09/26 02:33:20;;;;;;;1.7;1.6;;;;;;;;;;;;;
2023/09/26 02:35:44;;;;;;;1.7;1.5;;;;;;;;;;;;;
2023/09/26 02:38:10;;;;;;;1.8;1.4;;;;;;;;;;;;;
2023/09/26 02:40:35;;;;;;;1.5;1.4;;;;;;;;;;;;;
2023/09/26 02:43:01;;;;;;;1.6;1.4;;;;;;;;;;;;;
2023/09/26 02:45:34;;;;;;;2.1;1.6;;;;;;;;;;;;;
2023/09/26 02:47:59;;;;;;;1.9;1.6;;;;;;;;;;;;;
2023/09/26 02:50:25;;;;;;;2.4;1.7;;;;;;;;;;;;;
2023/09/26 02:52:49;;;;;;;1.6;1.3;;;;;;;;;;;;;
2023/09/26 02:55:15;;;;;;;2.2;1.4;;;;;;;;;;;;;
2023/09/26 02:57:41;;;;;;;2.2;1.7;;;;;;;;;;;;;
2023/09/26 03:00:12;;;;;;;1.5;1.4;;;;;;;;;;;;;
2023/09/26 03:02:31;;;;;;;1.7;1.5;;;;;;;;;;;;;
2023/09/26 03:04:56;;;;;;;2.3;1.5;;;;;;;;;;;;;
2023/09/26 03:07:21;;;;;;;1.6;1.5;;;;;;;;;;;;;
2023/09/26 03:09:52;;;;;;;2.1;1.5;;;;;;;;;;;;;
2023/09/26 03:12:14;;;;;;;1.9;1.6;;;;;;;;;;;;;
2023/09/26 03:14:39;;;;;;;2.8;1.5;;;;;;;;;;;;;
2023/09/26 03:17:06;;;;;;;1.9;1.6;;;;;;;;;;;;;
2023/09/26 03:19:31;;;;;;;2.3;1.6;;;;;;;;;;;;;
2023/09/26 03:21:56;;;;;;;1.6;1.3;;;;;;;;;;;;;
2023/09/26 03:24:22;;;;;;;2;1.4;;;;;;;;;;;;;
2023/09/26 03:26:47;;;;;;;3.8;1.5;;;;;;;;;;;;;
2023/09/26 03:29:12;;;;;;;1.6;1.3;;;;;;;;;;;;;
2023/09/26 03:31:38;;;;;;;2.6;1.8;;;;;;;;;;;;;
2023/09/26 03:34:04;;;;;;;2.9;1.5;;;;;;;;;;;;;
2023/09/26 03:36:30;;;;;;;2.5;1.4;;;;;;;;;;;;;
2023/09/26 03:38:55;;;;;;;1.7;1.6;;;;;;;;;;;;;
2023/09/26 03:41:20;;;;;;;2;1.4;;;;;;;;;;;;;
2023/09/26 03:43:46;;;;;;;1.6;1.5;;;;;;;;;;;;;
2023/09/26 03:46:11;;;;;;;1.4;1.3;;;;;;;;;;;;;
2023/09/26 03:48:38;;;;;;;2;1.5;;;;;;;;;;;;;
2023/09/26 03:51:03;;;;;;;1.9;1.5;;;;;;;;;;;;;
2023/09/26 03:53:30;;;;;;;2.2;1.4;;;;;;;;;;;;;
2023/09/26 03:55:55;;;;;;;2.2;1.4;;;;;;;;;;;;;
2023/09/26 03:58:20;;;;;;;1.7;1.5;;;;;;;;;;;;;
2023/09/26 04:02:38;;;;;;;1.4;1.3;;;;;;;9.98;96.47852;942.9481;;;;
2023/09/26 04:05:04;;;;;;;2.4;1.7;;;;;;;9.86;96.89746;942.972;;;;
2023/09/26 04:07:31;;;;;;;2.6;1.6;;;;;;;9.93;96.98242;943.0292;;;;
2023/09/26 04:09:56;;;;;;;1.8;1.5;;;;;;;9.88;96.73047;942.9861;;;;
2023/09/26 04:12:22;;;;;;;3;1.8;;;;;;;9.85;97.23926;942.9267;;;;
2023/09/26 04:14:50;;;;;;;3.2;1.6;;;;;;;9.8;96.82813;942.9207;;;;
2023/09/26 04:17:17;;;;;;;4;1.6;;;;;;;9.79;96.96289;942.8569;;;;
2023/09/26 04:19:46;;;;;;;1.8;1.5;;;;;;;9.79;96.42676;942.9498;;;;
2023/09/26 04:22:16;;;;;;;1.7;1.5;;;;;;;9.72;96.75293;942.9293;;;;
2023/09/26 04:24:41;;;;;;;1.9;1.7;;;;;;;9.73;96.78906;942.8875;;;;
2023/09/26 04:27:07;;;;;;;2.4;1.6;;;;;;;9.44;98.53516;942.9124;;;;
2023/09/26 04:29:33;;;;;;;1.7;1.4;;;;;;;9.34;100;942.8836;;;;
2023/09/26 04:31:58;;;;;;;1.8;1.6;;;;;;;9.43;99.84277;942.9111;;;;
2023/09/26 04:34:29;;;;;;;2.8;1.9;;;;;;;9.51;99.39453;942.8135;;;;
2023/09/26 04:36:53;;;;;;;2.4;1.5;;;;;;;9.62;98.56348;942.7508;;;;
2023/09/26 04:39:21;;;;;;;3.9;1.8;;;;;;;9.73;97.47266;942.7545;;;;
2023/09/26 04:41:52;;;;;;;2.6;1.7;;;;;;;9.72;96.75293;942.7966;;;;
2023/09/26 04:44:18;;;;;;;2.2;1.6;;;;;;;9.72;97.76758;942.7911;;;;
2023/09/26 04:46:46;;;;;;;2;1.7;;;;;;;9.79;97.22559;942.7661;;;;
2023/09/26 04:49:11;;;;;;;2.3;1.9;;;;;;;9.63;97.1748;942.8185;;;;
2023/09/26 04:51:39;;;;;;;2.3;1.8;;;;;;;9.49;97.93066;942.8267;;;;
2023/09/26 04:54:05;;;;;;;3.4;2.2;;;;;;;9.66;97.4248;942.832;;;;
2023/09/26 04:56:35;;;;;;;2.4;1.9;;;;;;;9.65;97.53418;942.8986;;;;
2023/09/26 04:59:05;;;;;;;1.9;1.6;;;;;;;9.73;97.42773;942.9231;;;;
2023/09/26 05:01:30;;;;;;;2;1.8;;;;;;;9.78;97.16602;942.9504;;;;
2023/09/26 05:04:00;;;;;;;2.5;2;;;;;;;9.79;96.51855;942.9324;;;;
2023/09/26 05:06:25;;;;;;;2.3;1.7;;;;;;;9.8;96.25586;942.9626;;;;
2023/09/26 05:08:53;;;;;;;2.3;1.9;;;;;;;9.53;97.84766;942.9744;;;;
2023/09/26 05:11:18;;;;;;;3;2.4;;;;;;;9.62;97.7334;943.0117;;;;
2023/09/26 05:13:51;;;;;;;3;1.5;;;;;;;9.54;98.05664;942.9255;;;;
2023/09/26 05:16:21;;;;;;;2.6;1.8;;;;;;;9.59;98.29688;942.99;;;;
2023/09/26 05:18:51;;;;;;;2.1;1.7;;;;;;;9.54;98.44434;942.9094;;;;
2023/09/26 05:21:17;;;;;;;2.6;1.8;;;;;;;9.56;98.51855;942.933;;;;
2023/09/26 05:23:50;;;;;;;2.4;1.8;;;;;;;9.56;98.4043;942.9537;;;;
2023/09/26 05:26:16;;;;;;;3.2;1.8;;;;;;;9.61;97.8457;943.0313;;;;
2023/09/26 05:28:47;;;;;;;3.8;3.1;;;;;;;9.57;98.64355;942.9832;;;;
2023/09/26 05:31:14;;;;;;;3.9;2.6;;;;;;;9.65;98.19531;942.9177;;;;
2023/09/26 05:33:45;;;;;;;4;2.3;;;;;;;9.64;98.27344;942.8744;;;;
2023/09/26 05:36:12;;;;;;;4.4;2.3;;;;;;;9.71;97.78809;942.9529;;;;
2023/09/26 05:38:37;;;;;;;3.7;2.2;;;;;;;9.65;98.44629;942.9598;;;;
2023/09/26 05:41:06;;;;;;;4.8;2.5;;;;;;;9.8;97.97949;942.884;;;;
2023/09/26 05:43:31;;;;;;;3.7;2.4;;;;;;;9.86;97.38965;942.7678;;;;
2023/09/26 05:46:03;;;;;;;3.2;2.8;;;;;;;9.84;97.66797;942.8691;;;;
2023/09/26 05:48:25;;;;;;;6.4;2.9;;;;;;;9.99;97.76953;942.8322;;;;
2023/09/26 05:50:53;;;;;;;5.6;3;;;;;;;10.31;96.95313;942.7578;;;;
2023/09/26 05:53:20;;;;;;;2.7;2.3;;;;;;;10.69;95.21094;942.8005;;;;
2023/09/26 05:55:50;;;;;;;3.2;2.2;;;;;;;10.9;92.72168;942.762;;;;
2023/09/26 05:58:15;;;;;;;1.8;1.6;;;;;;;11.04;92.43066;942.8201;;;;
2023/09/26 06:00:46;;;;;;;3.5;1.7;;;;;;;11.19;91.39746;942.7617;;;;
2023/09/26 06:03:10;;;;;;;3;1.8;;;;;;;11.33;91.16504;942.7958;;;;
2023/09/26 06:05:41;;;;;;;3;1.7;;;;;;;11.81;90.61328;942.8284;;;;
2023/09/26 06:08:06;;;;;;;2.8;1.4;;;;;;;12.14;88.35645;942.8007;;;;
2023/09/26 06:10:35;;;;;;;1.8;1.6;;;;;;;12.09;87.44043;942.8281;;;;
2023/09/26 06:13:00;;;;;;;3.4;1.6;;;;;;;12.06;88.27148;942.796;;;;
2023/09/26 06:15:32;;;;;;;3.4;1.7;;;;;;;12;88.84277;942.8036;;;;
2023/09/26 06:17:59;;;;;;;3.4;1.7;;;;;;;11.89;89.91992;942.8;;;;
2023/09/26 06:20:21;;;;;;;2.7;1.8;;;;;;;11.87;90.48926;942.7911;;;;
2023/09/26 06:22:50;;;;;;;1.7;1.6;;;;;;;11.97;91.05957;942.7213;;;;
2023/09/26 06:25:20;;;;;;;2;1.6;;;;;;;12.21;91.61523;942.7903;;;;
2023/09/26 06:27:44;;;;;;;2.7;1.6;;;;;;;12.46;91.91895;942.8381;;;;
2023/09/26 06:30:12;;;;;;;4.2;1.9;;;;;;;12.63;90.7041;942.8184;;;;
2023/09/26 06:32:37;;;;;;;2;1.6;;;;;;;12.77;90.26465;942.7772;;;;
2023/09/26 06:35:05;;;;;;;2;1.5;;;;;;;12.71;88.11523;942.791;;;;
2023/09/26 06:37:30;;;;;;;2.8;1.8;;;;;;;12.7;88.58496;942.8134;;;;
2023/09/26 06:40:03;;;;;;;2.1;1.6;;;;;;;12.59;88.24219;942.8097;;;;
2023/09/26 06:42:23;;;;;;;3.2;1.8;;;;;;;12.67;88.21289;942.7883;;;;
2023/09/26 06:44:48;;;;;;;2.7;1.8;;;;;;;12.69;87.81445;942.7709;;;;
2023/09/26 06:47:14;;;;;;;3.1;1.4;;;;;;;12.72;88.16602;942.7656;;;;
2023/09/26 06:49:39;;;;;;;2.3;1.5;;;;;;;12.94;88.40527;942.8004;;;;
2023/09/26 06:52:06;;;;;;;3.6;2;;;;;;;13.16;87.37891;942.7863;;;;
2023/09/26 06:54:30;;;;;;;4.5;1.6;;;;;;;13.25;86.88184;942.7139;;;;
2023/09/26 06:57:01;;;;;;;3.2;1.8;;;;;;;13.33;86.54199;942.7391;;;;
2023/09/26 06:59:26;;;;;;;4.4;1.9;;;;;;;13.61;85.05664;942.7314;;;;
2023/09/26 07:01:56;;;;;;;2.4;1.7;;;;;;;13.81;84.00098;942.671;;;;
2023/09/26 07:04:22;;;;;;;2.8;1.9;;;;;;;14.05;82.85156;942.6308;;;;
2023/09/26 07:06:47;;;;;;;2.4;1.7;;;;;;;14.28;82.40039;942.6653;;;;
2023/09/26 07:09:15;;;;;;;3;1.8;;;;;;;14.42;82.3584;942.7131;;;;
2023/09/26 07:11:39;;;;;;;2.2;1.4;;;;;;;14.67;80.91602;942.649;;;;
2023/09/26 07:14:07;;;;;;;3;1.6;;;;;;;14.73;80.04199;942.6339;;;;
2023/09/26 07:16:33;;;;;;;2.9;1.3;;;;;;;14.9;79.7041;942.6575;;;;
2023/09/26 07:19:02;;;;;;;1.8;1.4;;;;;;;15.11;78.18457;942.6223;;;;
2023/09/26 07:21:26;;;;;;;3.8;1.5;;;;;;;15.41;79.59863;942.5861;;;;
2023/09/26 07:23:54;;;;;;;3.1;1.8;;;;;;;15.76;76.10547;942.6164;;;;
2023/09/26 07:26:20;;;;;;;3;2.1;;;;;;;16.18;76.84961;942.5774;;;;
2023/09/26 07:28:51;;;;;;;4.4;1.5;;;;;;;16.21;72.23926;942.5941;;;;
2023/09/26 07:31:19;;;;;;;2.2;1.5;;;;;;;16.36;73.95215;942.633;;;;
2023/09/26 07:33:43;;;;;;;2.8;1.6;;;;;;;16.59;72.54492;942.6311;;;;
2023/09/26 07:36:11;;;;;;;2.9;1.3;;;;;;;17.16;70.10059;942.6769;;;;
2023/09/26 07:38:36;;;;;;;1.9;1.3;;;;;;;17.36;67.89355;942.5787;;;;
2023/09/26 07:41:02;;;;;;;5.1;1.6;;;;;;;17.09;69.77539;942.6581;;;;
2023/09/26 07:43:29;;;;;;;1.6;1.3;;;;;;;17.76;68.6875;942.5883;;;;
2023/09/26 07:45:52;;;;;;;2.6;1.6;;;;;;;18.45;66.8877;942.6348;;;;
2023/09/26 07:48:19;;;;;;;1.8;1.5;;;;;;;18.68;62.11816;942.6072;;;;
2023/09/26 07:50:45;;;;;;;2.5;1.5;;;;;;;18.21;62.29688;942.6398;;;;
2023/09/26 07:53:10;;;;;;;3.4;1.2;;;;;;;18.24;64.31152;942.6437;;;;
2023/09/26 07:55:35;;;;;;;2;1.2;;;;;;;18.3;61.94824;942.6607;;;;
2023/09/26 07:58:00;;;;;;;1.4;1.2;;;;;;;18.42;61.10547;942.6666;;;;
2023/09/26 08:00:27;;;;;;;1.9;1.5;;;;;;;18.99;62.37109;942.6414;;;;
2023/09/26 08:02:54;;;;;;;1.3;1.1;;;;;;;19.1;60.80273;942.6181;;;;
2023/09/26 08:05:20;;;;;;;1.2;1.1;;;;;;;19.57;57.94336;942.5978;;;;
2023/09/26 08:07:45;;;;;;;2.4;1.5;;;;;;;19.64;58.58203;942.5961;;;;
2023/09/26 08:10:14;;;;;;;2.1;1.3;;;;;;;19.7;59.75488;942.6175;;;;
2023/09/26 08:12:41;;;;;;;2.5;1.1;;;;;;;19.6;58.33105;942.62;;;;
2023/09/26 08:15:04;;;;;;;2;1.4;;;;;;;20.03;58.1084;942.6861;;;;
2023/09/26 08:17:29;;;;;;;2.8;1.5;;;;;;;19.86;62.24902;942.6012;;;;
2023/09/26 08:19:54;;;;;;;2;1.3;;;;;;;19.61;62.5752;942.6917;;;;
2023/09/26 08:22:20;;;;;;;2.1;1.4;;;;;;;19.47;64.15332;942.6131;;;;
2023/09/26 08:24:45;;;;;;;2;1.3;;;;;;;19.71;60.85156;942.6328;;;;
2023/09/26 08:27:12;;;;;;;1.6;1.3;;;;;;;19.9;61.97461;942.5737;;;;
2023/09/26 08:29:37;;;;;;;1.4;1.3;;;;;;;19.94;59.67188;942.606;;;;
2023/09/26 08:32:04;;;;;;;1.7;1.5;;;;;;;19.65;63.64258;942.6347;;;;
2023/09/26 08:34:29;;;;;;;1.7;1.3;;;;;;;19.11;65.7207;942.6768;;;;
2023/09/26 08:36:57;;;;;;;2.3;1.5;;;;;;;18.74;68.95605;942.6594;;;;
2023/09/26 08:39:21;;;;;;;4.3;1.8;;;;;;;18.6;69.66602;942.6489;;;;
2023/09/26 08:41:48;;;;;;;3.8;1.8;;;;;;;18.7;69.9043;942.6003;;;;
2023/09/26 08:44:14;;;;;;;2.8;1.8;;;;;;;18.65;69.88477;942.6536;;;;
2023/09/26 08:46:41;;;;;;;2.7;1.5;;;;;;;18.75;66.24707;942.611;;;;
2023/09/26 08:49:06;;;;;;;2.4;1.3;;;;;;;18.9;64.37305;942.5838;;;;
2023/09/26 08:51:32;;;;;;;1.8;1.4;;;;;;;19.27;62.43457;942.584;;;;
2023/09/26 08:53:57;;;;;;;2.7;1.5;;;;;;;19.26;64.99512;942.6206;;;;
2023/09/26 08:56:22;;;;;;;2.6;1.4;;;;;;;18.99;65.61816;942.6107;;;;
2023/09/26 08:58:49;;;;;;;1.3;1.2;;;;;;;19.11;61.87598;942.5726;;;;
2023/09/26 09:01:14;;;;;;;1.8;1.1;;;;;;;19.09;62.32813;942.5737;;;;
2023/09/26 09:03:41;;;;;;;1.2;1.1;;;;;;;19.44;62.03809;942.5297;;;;
2023/09/26 09:06:06;;;;;;;3.1;1.3;;;;;;;19.38;64;942.5094;;;;
2023/09/26 09:08:31;;;;;;;1.5;1.4;;;;;;;19.44;60.93164;942.4861;;;;
2023/09/26 09:10:56;;;;;;;4.5;1.5;;;;;;;19.35;63.08594;942.4567;;;;
2023/09/26 09:13:23;;;;;;;1.7;1.6;;;;;;;19.33;62.16211;942.4498;;;;
2023/09/26 09:15:49;;;;;;;2.2;1.2;;;;;;;19.35;62.1543;942.3752;;;;
2023/09/26 09:18:13;;;;;;;1.2;1.1;;;;;;;19.34;64.00684;942.3906;;;;
2023/09/26 09:20:39;;;;;;;3.1;1.2;;;;;;;19.46;61.59863;942.3856;;;;
2023/09/26 09:23:04;;;;;;;1.5;1.4;;;;;;;19.49;61.05566;942.3463;;;;
2023/09/26 09:25:30;;;;;;;2.1;1.8;;;;;;;19.45;62.23828;942.3251;;;;
2023/09/26 09:27:55;;;;;;;1.8;1.3;;;;;;;19.38;62.14746;942.3649;;;;
2023/09/26 09:30:23;;;;;;;2.1;1.4;;;;;;;19.38;62.97363;942.3295;;;;
2023/09/26 09:32:48;;;;;;;3.4;1.2;;;;;;;19.36;63.55469;942.2166;;;;
2023/09/26 09:35:16;;;;;;;2.4;1.4;;;;;;;19.45;60.94434;942.2452;;;;
2023/09/26 09:37:41;;;;;;;2.3;1.3;;;;;;;19.58;62.92188;942.2802;;;;
2023/09/26 09:40:08;;;;;;;1.7;1.3;;;;;;;19.65;63.04785;942.2396;;;;
2023/09/26 09:42:33;;;;;;;1.4;1.3;;;;;;;19.52;62.24902;942.2285;;;;
2023/09/26 09:44:58;;;;;;;1.7;1.1;;;;;;;19.42;64.33105;942.2715;;;;
2023/09/26 09:47:24;;;;;;;1.4;1.3;;;;;;;19.65;62.40723;942.3002;;;;
2023/09/26 09:49:51;;;;;;;2.1;1.4;;;;;;;19.83;63.65723;942.2889;;;;
2023/09/26 09:52:16;;;;;;;2.2;1.1;;;;;;;19.84;65.7334;942.2516;;;;
2023/09/26 09:54:44;;;;;;;1.4;1.3;;;;;;;19.89;64.12012;942.165;;;;
2023/09/26 09:57:10;;;;;;;2;1.3;;;;;;;19.99;62.9668;942.1541;;;;
2023/09/26 09:59:34;;;;;;;2.2;1.3;;;;;;;19.83;66.05957;942.175;;;;
2023/09/26 10:01:59;;;;;;;1.4;1.3;;;;;;;20.04;65.63477;942.1727;;;;
2023/09/26 10:04:25;;;;;;;1.4;1.3;;;;;;;20.24;64.77832;942.176;;;;
2023/09/26 10:06:52;;;;;;;1.1;1;;;;;;;20.07;65.42969;942.1478;;;;
2023/09/26 10:09:20;;;;;;;1.4;1.2;;;;;;;20.38;64.07422;942.1333;;;;
2023/09/26 10:11:44;;;;;;;1.6;1.1;;;;;;;20.88;61.57422;942.1067;;;;
2023/09/26 10:14:10;;;;;;;1.3;1.2;;;;;;;20.89;62.23145;942.0911;;;;
2023/09/26 10:16:36;;;;;;;1.2;1.1;;;;;;;21.19;62.90527;942.1025;;;;
2023/09/26 10:19:01;;;;;;;2.9;1.2;;;;;;;21.06;62.37109;942.1026;;;;
2023/09/26 10:21:26;;;;;;;3.1;1.3;;;;;;;21.14;61.8457;942.0705;;;;
2023/09/26 10:23:51;;;;;;;1.7;1.3;;;;;;;21.09;61.66406;942.1099;;;;
2023/09/26 10:26:16;;;;;;;1.4;1.3;;;;;;;20.73;63.69141;942.1157;;;;
2023/09/26 10:28:42;;;;;;;2.2;1.3;;;;;;;20.47;63.92383;942.0923;;;;
2023/09/26 10:31:07;;;;;;;3.5;1.6;;;;;;;20.74;63.74219;942.1024;;;;
2023/09/26 10:33:32;;;;;;;1.4;1.3;;;;;;;21.34;62.87891;942.062;;;;
2023/09/26 10:35:58;;;;;;;2.2;1.4;;;;;;;21.42;62.75;942.0826;;;;
2023/09/26 10:38:24;;;;;;;2;1.4;;;;;;;21.38;65.99805;942.0538;;;;
2023/09/26 10:40:51;;;;;;;1.6;1.3;;;;;;;22.19;61.24121;942.0433;;;;
2023/09/26 10:43:17;;;;;;;3.1;1.5;;;;;;;23.45;57.6416;942.067;;;;
2023/09/26 10:45:42;;;;;;;2.8;1.6;;;;;;;24.06;54.95215;942.0547;;;;
2023/09/26 10:48:07;;;;;;;1.7;1.3;;;;;;;23.55;56.42969;941.9889;;;;
2023/09/26 10:50:32;;;;;;;2.8;1.6;;;;;;;24.06;55.6709;942.0021;;;;
2023/09/26 10:52:59;;;;;;;3.1;1.5;;;;;;;23.87;56;941.9664;;;;
2023/09/26 10:55:24;;;;;;;2.7;1.6;;;;;;;23.38;58.25488;941.9789;;;;
2023/09/26 10:57:50;;;;;;;2.2;1.2;;;;;;;23.1;59.30957;941.9802;;;;
2023/09/26 11:00:17;;;;;;;1.7;1.3;;;;;;;23.19;58.07715;941.9111;;;;
2023/09/26 11:02:44;;;;;;;1.8;1.4;;;;;;;23.25;58.93066;941.9355;;;;
2023/09/26 11:05:10;;;;;;;2;1.4;;;;;;;23.37;57.21875;941.9492;;;;
2023/09/26 11:07:37;;;;;;;2;1.4;;;;;;;24.03;55.6084;941.9227;;;;
2023/09/26 11:10:03;;;;;;;1.7;1.3;;;;;;;24.3;55.99609;941.8666;;;;
2023/09/26 11:12:28;;;;;;;3.4;2;;;;;;;25.49;53.07324;941.8745;;;;
2023/09/26 11:14:54;;;;;;;2.3;1.3;;;;;;;25.14;55.25098;941.8812;;;;
2023/09/26 11:17:23;;;;;;;1.9;1.5;;;;;;;25.79;52.0332;941.7855;;;;
2023/09/26 11:19:47;;;;;;;2.3;1.3;;;;;;;26.56;50.03906;941.8442;;;;
2023/09/26 11:22:12;;;;;;;2.1;1.6;;;;;;;29.12;44.7627;941.8154;;;;
2023/09/26 11:24:41;;;;;;;4.3;1.7;;;;;;;30.05;41.31152;941.735;;;;
2023/09/26 11:27:08;;;;;;;2.1;1.4;;;;;;;29.89;42.32324;941.7524;;;;
2023/09/26 11:29:33;;;;;;;8.8;3.7;;;;;;;29.77;41.51172;941.7605;;;;
2023/09/26 11:31:58;;;;;;;1.6;1.3;;;;;;;27.99;44.8291;941.6644;;;;
2023/09/26 11:34:25;;;;;;;1.4;1.3;;;;;;;25.79;52.19922;941.7029;;;;
2023/09/26 11:36:50;;;;;;;1.8;1.5;;;;;;;24.79;54.78223;941.7335;;;;
2023/09/26 11:39:17;;;;;;;2.1;1.4;;;;;;;25.36;52.80957;941.7014;;;;
2023/09/26 11:41:42;;;;;;;2;1.4;;;;;;;24.99;54.3457;941.6596;;;;
2023/09/26 11:44:07;;;;;;;2;1.4;;;;;;;24.75;55.56738;941.5759;;;;
2023/09/26 11:46:33;;;;;;;2.6;1.5;;;;;;;24.64;55.14258;941.6153;;;;
2023/09/26 11:48:58;;;;;;;1.7;1.4;;;;;;;24.69;54.90039;941.6233;;;;
2023/09/26 11:51:24;;;;;;;1.8;1.3;;;;;;;24.85;54.49512;941.6522;;;;
2023/09/26 11:53:49;;;;;;;2.4;1.5;;;;;;;25.42;53.21875;941.5779;;;;
2023/09/26 11:56:16;;;;;;;2.6;1.5;;;;;;;25.09;55.39648;941.6145;;;;
2023/09/26 11:58:41;;;;;;;1.7;1.5;;;;;;;24.85;56.60645;941.5502;;;;
2023/09/26 12:01:07;;;;;;;1.5;1.4;;;;;;;25.33;54.37695;941.5932;;;;
2023/09/26 12:03:33;;;;;;;1.3;1.2;;;;;;;25.11;55.04688;941.6501;;;;
2023/09/26 12:06:01;;;;;;;3;1.5;;;;;;;24.97;53.81445;941.6;;;;
2023/09/26 12:08:29;;;;;;;1.6;1.5;;;;;;;24.38;56.66406;941.551;;;;
2023/09/26 12:10:51;;;;;;;1.7;1.2;;;;;;;24.22;55.83203;941.6036;;;;
2023/09/26 12:13:16;;;;;;;1.9;1.3;;;;;;;24.4;56.58398;941.5764;;;;
2023/09/26 12:15:42;;;;;;;1.6;1.2;;;;;;;24.13;58.88281;941.5924;;;;
2023/09/26 12:18:09;;;;;;;2.7;1.3;;;;;;;24.23;55.5752;941.628;;;;
2023/09/26 12:20:33;;;;;;;2;1.7;;;;;;;24.53;54.99805;941.5667;;;;
2023/09/26 12:23:00;;;;;;;2.5;1.6;;;;;;;24.49;56.39648;941.5103;;;;
2023/09/26 12:25:27;;;;;;;3.9;1.9;;;;;;;23.84;58.0791;941.5226;;;;
2023/09/26 12:27:50;;;;;;;1.7;1.4;;;;;;;23.71;59.9209;941.4911;;;;
2023/09/26 12:30:19;;;;;;;2.7;1.3;;;;;;;23.9;59.75977;941.4885;;;;
2023/09/26 12:32:42;;;;;;;2;1.3;;;;;;;23.77;59.30566;941.4523;;;;
2023/09/26 12:35:07;;;;;;;3.5;1.5;;;;;;;24.03;59.41016;941.5148;;;;
2023/09/26 12:37:33;;;;;;;1.7;1.4;;;;;;;24.35;57.99414;941.408;;;;
2023/09/26 12:39:58;;;;;;;1.7;1.2;;;;;;;24.6;56.7168;941.4563;;;;
2023/09/26 12:42:23;;;;;;;2.2;1.4;;;;;;;24.85;56.46484;941.4713;;;;
2023/09/26 12:44:48;;;;;;;3.4;1.7;;;;;;;24.88;56.29199;941.4643;;;;
2023/09/26 12:47:13;;;;;;;1.7;1.4;;;;;;;24.33;58.63672;941.4619;;;;
2023/09/26 12:49:39;;;;;;;2.4;1.4;;;;;;;24.43;56.69531;941.4581;;;;
2023/09/26 12:52:04;;;;;;;1.6;1.5;;;;;;;24.22;57.85742;941.4208;;;;
2023/09/26 12:54:30;;;;;;;2.4;1.6;;;;;;;24.25;57.49707;941.4336;;;;
2023/09/26 12:57:01;;;;;;;1.6;1.3;;;;;;;24.84;55.52148;941.408;;;;
2023/09/26 12:59:21;;;;;;;1.9;1.2;;;;;;;24.73;55.94434;941.4113;;;;
2023/09/26 13:01:47;;;;;;;2.9;1.3;;;;;;;24.19;58.75;941.3378;;;;
2023/09/26 13:04:13;;;;;;;1.7;1.4;;;;;;;24.26;58.49902;941.3779;;;;
2023/09/26 13:06:38;;;;;;;1.5;1.3;;;;;;;24.2;57.80859;941.2935;;;;
2023/09/26 13:09:04;;;;;;;2.6;1.6;;;;;;;24.15;58.36719;941.3361;;;;
2023/09/26 13:11:29;;;;;;;1.6;1.2;;;;;;;24.31;57.56348;941.3046;;;;
2023/09/26 13:13:54;;;;;;;1.7;1.4;;;;;;;24.54;56.36719;941.3056;;;;
2023/09/26 13:16:22;;;;;;;1.6;1.3;;;;;;;24.83;55.31934;941.2601;;;;
2023/09/26 13:18:47;;;;;;;2.1;1.4;;;;;;;24.6;56.66895;941.2341;;;;
2023/09/26 13:21:15;;;;;;;2.1;1.5;;;;;;;24.78;56.3623;941.3133;;;;
2023/09/26 13:23:39;;;;;;;1.9;1.5;;;;;;;24.56;57.08984;941.2786;;;;
2023/09/26 13:26:04;;;;;;;2.5;1.4;;;;;;;24.98;55.41895;941.2282;;;;
2023/09/26 13:28:29;;;;;;;1.6;1.5;;;;;;;25.32;54.50488;941.2123;;;;
2023/09/26 13:30:56;;;;;;;2;1.2;;;;;;;25.24;55.31055;941.1893;;;;
2023/09/26 13:33:20;;;;;;;1.3;1.2;;;;;;;24.35;58.29785;941.2006;;;;
2023/09/26 13:35:47;;;;;;;1.5;1.4;;;;;;;24.79;57.68555;941.2126;;;;
2023/09/26 13:38:12;;;;;;;1.8;1.4;;;;;;;24.66;56.18262;941.2285;;;;
2023/09/26 13:40:40;;;;;;;2;1.3;;;;;;;24.87;56.63281;941.146;;;;
2023/09/26 13:43:02;;;;;;;1.6;1.5;;;;;;;25.19;54.99707;941.2271;;;;
2023/09/26 13:45:29;;;;;;;2.4;1.6;;;;;;;25.15;54.83887;941.1537;;;;
2023/09/26 13:47:55;;;;;;;1.7;1.4;;;;;;;25.03;54.87109;941.158;;;;
2023/09/26 13:50:21;;;;;;;1.2;1.1;;;;;;;25.32;54.76465;941.0679;;;;
2023/09/26 13:52:45;;;;;;;1.4;1.3;;;;;;;25.28;54.97266;941.1252;;;;
2023/09/26 13:55:15;;;;;;;1.7;1.2;;;;;;;25.16;55.05273;941.1028;;;;
2023/09/26 13:57:40;;;;;;;2.1;1.4;;;;;;;25.37;54.65332;941.0419;;;;
2023/09/26 14:00:08;;;;;;;2.4;1.3;;;;;;;25.34;55.67578;941.0654;;;;
2023/09/26 14:02:33;;;;;;;1.4;1.3;;;;;;;25.26;55.61914;941.099;;;;
2023/09/26 14:04:58;;;;;;;2.2;1.3;;;;;;;25.29;55.1875;941.0028;;;;
2023/09/26 14:07:23;;;;;;;1.8;1.4;;;;;;;25.44;54.3418;941.0058;;;;
2023/09/26 14:09:48;;;;;;;1.7;1.3;;;;;;;25.5;54.29199;941.0005;;;;
2023/09/26 14:12:14;;;;;;;1.5;1.3;;;;;;;25.44;54.18848;940.9905;;;;
2023/09/26 14:14:39;;;;;;;1.9;1.4;;;;;;;25.44;54.13086;940.9821;;;;
2023/09/26 14:17:04;;;;;;;1.6;1.3;;;;;;;25.47;54.46484;941.011;;;;
2023/09/26 14:19:29;;;;;;;1.7;1.4;;;;;;;25.42;53.96191;941.0465;;;;
2023/09/26 14:21:56;;;;;;;1.9;1.4;;;;;;;25.26;54.73438;941.0442;;;;
2023/09/26 14:24:22;;;;;;;2.3;1.4;;;;;;;25.24;55.18066;941.129;;;;
2023/09/26 14:26:49;;;;;;;2;1.6;;;;;;;25.15;55.42969;941.0697;;;;
2023/09/26 14:29:12;;;;;;;1.5;1.4;;;;;;;25.09;55.64551;941.101;;;;
2023/09/26 14:31:38;;;;;;;3;1.3;;;;;;;25.17;54.72363;941.0879;;;;
2023/09/26 14:34:05;;;;;;;2.4;1.3;;;;;;;24.95;55.65137;941.0306;;;;
2023/09/26 14:36:33;;;;;;;2.1;1.5;;;;;;;24.9;56.79004;941.0709;;;;
2023/09/26 14:38:58;;;;;;;1.5;1.4;;;;;;;24.9;56.57813;941.0229;;;;
2023/09/26 14:41:26;;;;;;;1.8;1.3;;;;;;;24.81;56.79004;941.027;;;;
2023/09/26 14:43:51;;;;;;;1.4;1.3;;;;;;;24.86;56.67773;941.0505;;;;
2023/09/26 14:46:16;;;;;;;1.5;1.1;;;;;;;24.97;56.4209;941.0608;;;;
2023/09/26 14:48:42;;;;;;;2.5;1.4;;;;;;;24.98;56.45703;941.0415;;;;
2023/09/26 14:51:09;;;;;;;1.7;1.5;;;;;;;24.8;56.86035;941.073;;;;
2023/09/26 14:53:34;;;;;;;1.8;1.3;;;;;;;24.82;56.59082;941.0647;;;;
2023/09/26 14:56:00;;;;;;;1.5;1.4;;;;;;;24.73;57.04102;941.0432;;;;
2023/09/26 14:58:25;;;;;;;1.7;1.5;;;;;;;24.81;57.82813;941.0889;;;;
2023/09/26 15:00:54;;;;;;;1.5;1.4;;;;;;;24.75;57.56055;941.11;;;;
2023/09/26 15:03:19;;;;;;;1.6;1.4;;;;;;;24.63;57.47461;941.1362;;;;
2023/09/26 15:05:44;;;;;;;3.7;1.4;;;;;;;24.36;58.01758;941.0789;;;;
2023/09/26 15:08:09;;;;;;;2.2;1.4;;;;;;;24.33;58.27246;941.0987;;;;
2023/09/26 15:10:38;;;;;;;1.5;1.4;;;;;;;24.24;58.48535;941.1264;;;;
2023/09/26 15:13:03;;;;;;;1.9;1.4;;;;;;;24.05;59.16699;941.1447;;;;
2023/09/26 15:15:29;;;;;;;1.6;1.4;;;;;;;23.93;59.36328;941.1635;;;;
2023/09/26 15:17:53;;;;;;;3.3;1.6;;;;;;;23.82;59.81934;941.0981;;;;
2023/09/26 15:20:22;;;;;;;2.5;1.4;;;;;;;23.84;59.86914;941.0888;;;;
2023/09/26 15:22:47;;;;;;;1.6;1.5;;;;;;;23.82;60.53711;941.1072;;;;
2023/09/26 15:25:13;;;;;;;2.9;1.2;;;;;;;23.78;60.71875;941.0899;;;;
2023/09/26 15:27:37;;;;;;;1.5;1.4;;;;;;;23.34;62.15332;941.0969;;;;
2023/09/26 15:30:03;;;;;;;2.1;1.6;;;;;;;23.39;61.8418;941.0952;;;;
2023/09/26 15:32:28;;;;;;;4;1.6;;;;;;;23.44;61.69531;941.1166;;;;
2023/09/26 15:34:53;;;;;;;2.3;1.5;;;;;;;23.39;62.15918;941.1636;;;;